CYDN

Dauphin Barker Airport

Dauphin, Manitoba, Canada
METAR CYDN 181600Z AUTO 26014KT 9SM CLR M03/M06 A2943 RMK SLP984
Observed Flight Rules
Dec-18 @ 16:00 UTC (36 minutes ago) Visual Flight Rules
Wind Visibility Clouds
260° at 14 knots 9 miles
  • Clear skies
Temperatures Readings
Current -3°C / 27°F
Dewpoint -6°C / 21°F
Humidity 80%
Altimeter 29.43" Hg
Pressure 998.4 hPa
Elevation 305
METAR CYDN 181600Z AUTO 26014KT 9SM CLR M03/M06 A2943 RMK SLP984
Observed Flight Rules
Dec-18 @ 16:00 UTC
(36 minutes ago)
VFR
Wind Visibility
260° at 14 knots 9 miles
Clouds
  • Clear skies
Temperature Dewpoint
-3°C / 27°F -6°C / 21°F
Humidity Altimeter Pressure
80% 29.43" Hg 998.4 hPa